sensor_id;sensor_type;location;lat;lon;timestamp;temperature;humidity
75489;HTU21D;64069;46.396;48.102;2023-04-23T00:00:28;12.33;77.34
75489;HTU21D;64069;46.396;48.102;2023-04-23T00:02:54;12.34;77.44
75489;HTU21D;64069;46.396;48.102;2023-04-23T00:05:22;12.33;77.52
75489;HTU21D;64069;46.396;48.102;2023-04-23T00:07:52;12.31;77.56
75489;HTU21D;64069;46.396;48.102;2023-04-23T00:10:18;12.30;77.72
75489;HTU21D;64069;46.396;48.102;2023-04-23T00:12:43;12.30;78.01
75489;HTU21D;64069;46.396;48.102;2023-04-23T00:15:10;12.30;77.92
75489;HTU21D;64069;46.396;48.102;2023-04-23T00:17:36;12.29;77.76
75489;HTU21D;64069;46.396;48.102;2023-04-23T00:20:02;12.27;77.68
75489;HTU21D;64069;46.396;48.102;2023-04-23T00:22:28;12.27;77.95
75489;HTU21D;64069;46.396;48.102;2023-04-23T00:24:53;12.28;77.94
75489;HTU21D;64069;46.396;48.102;2023-04-23T00:27:19;12.27;78.00
75489;HTU21D;64069;46.396;48.102;2023-04-23T00:29:45;12.27;78.08
75489;HTU21D;64069;46.396;48.102;2023-04-23T00:32:11;12.25;77.89
75489;HTU21D;64069;46.396;48.102;2023-04-23T00:34:38;12.25;78.01
75489;HTU21D;64069;46.396;48.102;2023-04-23T00:37:05;12.23;77.87
75489;HTU21D;64069;46.396;48.102;2023-04-23T00:39:34;12.21;77.81
75489;HTU21D;64069;46.396;48.102;2023-04-23T00:42:01;12.20;77.80
75489;HTU21D;64069;46.396;48.102;2023-04-23T00:44:39;12.22;77.69
75489;HTU21D;64069;46.396;48.102;2023-04-23T00:47:08;12.22;77.60
75489;HTU21D;64069;46.396;48.102;2023-04-23T00:49:34;12.21;77.56
75489;HTU21D;64069;46.396;48.102;2023-04-23T00:52:00;12.18;77.62
75489;HTU21D;64069;46.396;48.102;2023-04-23T00:54:26;12.17;77.85
75489;HTU21D;64069;46.396;48.102;2023-04-23T00:56:52;12.15;77.99
75489;HTU21D;64069;46.396;48.102;2023-04-23T00:59:18;12.12;78.11
75489;HTU21D;64069;46.396;48.102;2023-04-23T01:01:44;12.11;78.34
75489;HTU21D;64069;46.396;48.102;2023-04-23T01:04:11;12.08;78.40
75489;HTU21D;64069;46.396;48.102;2023-04-23T01:06:37;12.07;78.30
75489;HTU21D;64069;46.396;48.102;2023-04-23T01:09:03;12.07;78.35
75489;HTU21D;64069;46.396;48.102;2023-04-23T01:11:30;12.06;78.44
75489;HTU21D;64069;46.396;48.102;2023-04-23T01:13:57;12.06;78.45
75489;HTU21D;64069;46.396;48.102;2023-04-23T01:16:22;12.04;78.46
75489;HTU21D;64069;46.396;48.102;2023-04-23T01:18:48;12.01;78.47
75489;HTU21D;64069;46.396;48.102;2023-04-23T01:21:14;11.96;78.57
75489;HTU21D;64069;46.396;48.102;2023-04-23T01:23:41;11.89;78.79
75489;HTU21D;64069;46.396;48.102;2023-04-23T01:26:08;11.83;78.91
75489;HTU21D;64069;46.396;48.102;2023-04-23T01:28:35;11.77;79.03
75489;HTU21D;64069;46.396;48.102;2023-04-23T01:31:04;11.72;79.01
75489;HTU21D;64069;46.396;48.102;2023-04-23T01:33:30;11.68;78.95
75489;HTU21D;64069;46.396;48.102;2023-04-23T01:35:56;11.64;78.85
75489;HTU21D;64069;46.396;48.102;2023-04-23T01:38:22;11.63;78.75
75489;HTU21D;64069;46.396;48.102;2023-04-23T01:40:50;11.66;78.57
75489;HTU21D;64069;46.396;48.102;2023-04-23T01:43:16;11.67;78.45
75489;HTU21D;64069;46.396;48.102;2023-04-23T01:45:42;11.69;78.40
75489;HTU21D;64069;46.396;48.102;2023-04-23T01:48:07;11.71;78.52
75489;HTU21D;64069;46.396;48.102;2023-04-23T01:50:34;11.71;78.65
75489;HTU21D;64069;46.396;48.102;2023-04-23T01:52:59;11.72;78.73
75489;HTU21D;64069;46.396;48.102;2023-04-23T01:55:25;11.72;79.05
75489;HTU21D;64069;46.396;48.102;2023-04-23T01:57:51;11.73;78.88
75489;HTU21D;64069;46.396;48.102;2023-04-23T02:00:17;11.75;78.75
75489;HTU21D;64069;46.396;48.102;2023-04-23T02:02:43;11.77;78.66
75489;HTU21D;64069;46.396;48.102;2023-04-23T02:05:10;11.79;78.75
75489;HTU21D;64069;46.396;48.102;2023-04-23T02:07:36;11.84;78.66
75489;HTU21D;64069;46.396;48.102;2023-04-23T02:10:01;11.86;78.59
75489;HTU21D;64069;46.396;48.102;2023-04-23T02:12:28;11.90;78.55
75489;HTU21D;64069;46.396;48.102;2023-04-23T02:14:54;11.92;78.47
75489;HTU21D;64069;46.396;48.102;2023-04-23T02:17:20;11.93;78.50
75489;HTU21D;64069;46.396;48.102;2023-04-23T02:19:50;11.93;78.58
75489;HTU21D;64069;46.396;48.102;2023-04-23T02:22:16;11.97;78.90
75489;HTU21D;64069;46.396;48.102;2023-04-23T02:24:42;12.00;79.01
75489;HTU21D;64069;46.396;48.102;2023-04-23T02:27:08;12.03;78.87
75489;HTU21D;64069;46.396;48.102;2023-04-23T02:29:34;12.05;79.36
75489;HTU21D;64069;46.396;48.102;2023-04-23T02:32:01;12.05;79.30
75489;HTU21D;64069;46.396;48.102;2023-04-23T02:34:27;12.06;79.43
75489;HTU21D;64069;46.396;48.102;2023-04-23T02:36:53;12.07;79.40
75489;HTU21D;64069;46.396;48.102;2023-04-23T02:39:19;12.10;79.50
75489;HTU21D;64069;46.396;48.102;2023-04-23T02:41:45;12.06;79.49
75489;HTU21D;64069;46.396;48.102;2023-04-23T02:44:10;12.03;79.60
75489;HTU21D;64069;46.396;48.102;2023-04-23T02:46:36;12.04;79.89
75489;HTU21D;64069;46.396;48.102;2023-04-23T02:49:02;12.06;79.66
75489;HTU21D;64069;46.396;48.102;2023-04-23T02:51:29;12.12;79.62
75489;HTU21D;64069;46.396;48.102;2023-04-23T02:53:55;12.16;79.84
75489;HTU21D;64069;46.396;48.102;2023-04-23T02:56:21;12.18;79.85
75489;HTU21D;64069;46.396;48.102;2023-04-23T02:58:47;12.20;79.94
75489;HTU21D;64069;46.396;48.102;2023-04-23T03:01:13;12.28;79.86
75489;HTU21D;64069;46.396;48.102;2023-04-23T03:03:39;12.37;79.59
75489;HTU21D;64069;46.396;48.102;2023-04-23T03:06:06;12.51;79.37
75489;HTU21D;64069;46.396;48.102;2023-04-23T03:08:32;12.77;79.16
75489;HTU21D;64069;46.396;48.102;2023-04-23T03:10:58;13.21;78.33
75489;HTU21D;64069;46.396;48.102;2023-04-23T03:13:25;13.35;77.95
75489;HTU21D;64069;46.396;48.102;2023-04-23T03:15:51;13.27;78.29
75489;HTU21D;64069;46.396;48.102;2023-04-23T03:18:17;13.21;78.83
75489;HTU21D;64069;46.396;48.102;2023-04-23T03:20:46;13.53;78.99
75489;HTU21D;64069;46.396;48.102;2023-04-23T03:23:12;14.01;78.27
75489;HTU21D;64069;46.396;48.102;2023-04-23T03:25:37;14.11;78.06
75489;HTU21D;64069;46.396;48.102;2023-04-23T03:28:03;14.17;78.59
75489;HTU21D;64069;46.396;48.102;2023-04-23T03:30:29;14.36;78.45
75489;HTU21D;64069;46.396;48.102;2023-04-23T03:32:55;14.37;78.55
75489;HTU21D;64069;46.396;48.102;2023-04-23T03:35:25;14.22;78.88
75489;HTU21D;64069;46.396;48.102;2023-04-23T03:37:53;14.03;79.40
75489;HTU21D;64069;46.396;48.102;2023-04-23T03:40:20;13.88;80.13
75489;HTU21D;64069;46.396;48.102;2023-04-23T03:42:48;13.71;80.26
75489;HTU21D;64069;46.396;48.102;2023-04-23T03:45:17;13.66;80.17
75489;HTU21D;64069;46.396;48.102;2023-04-23T03:47:43;13.59;80.11
75489;HTU21D;64069;46.396;48.102;2023-04-23T03:50:09;13.51;79.98
75489;HTU21D;64069;46.396;48.102;2023-04-23T03:52:38;13.49;80.11
75489;HTU21D;64069;46.396;48.102;2023-04-23T03:55:07;13.45;80.24
75489;HTU21D;64069;46.396;48.102;2023-04-23T03:57:39;13.39;80.19
75489;HTU21D;64069;46.396;48.102;2023-04-23T04:00:19;13.38;79.85
75489;HTU21D;64069;46.396;48.102;2023-04-23T04:02:45;13.40;79.63
75489;HTU21D;64069;46.396;48.102;2023-04-23T04:05:11;13.36;79.66
75489;HTU21D;64069;46.396;48.102;2023-04-23T04:07:37;13.32;79.70
75489;HTU21D;64069;46.396;48.102;2023-04-23T04:10:06;13.25;79.72
75489;HTU21D;64069;46.396;48.102;2023-04-23T04:12:32;13.22;79.72
75489;HTU21D;64069;46.396;48.102;2023-04-23T04:14:58;13.21;79.62
75489;HTU21D;64069;46.396;48.102;2023-04-23T04:17:24;13.27;79.58
75489;HTU21D;64069;46.396;48.102;2023-04-23T04:19:49;13.32;79.46
75489;HTU21D;64069;46.396;48.102;2023-04-23T04:22:16;13.36;79.59
75489;HTU21D;64069;46.396;48.102;2023-04-23T04:24:41;13.41;79.45
75489;HTU21D;64069;46.396;48.102;2023-04-23T04:27:07;13.44;79.37
75489;HTU21D;64069;46.396;48.102;2023-04-23T04:29:33;13.53;79.41
75489;HTU21D;64069;46.396;48.102;2023-04-23T04:31:59;13.95;78.92
75489;HTU21D;64069;46.396;48.102;2023-04-23T04:34:25;14.47;78.14
75489;HTU21D;64069;46.396;48.102;2023-04-23T04:36:52;14.85;77.61
75489;HTU21D;64069;46.396;48.102;2023-04-23T04:39:18;15.19;77.20
75489;HTU21D;64069;46.396;48.102;2023-04-23T04:41:44;15.58;76.78
75489;HTU21D;64069;46.396;48.102;2023-04-23T04:44:10;15.92;76.44
75489;HTU21D;64069;46.396;48.102;2023-04-23T04:46:35;16.15;76.33
75489;HTU21D;64069;46.396;48.102;2023-04-23T04:49:13;16.37;76.36
75489;HTU21D;64069;46.396;48.102;2023-04-23T04:51:39;16.61;76.31
75489;HTU21D;64069;46.396;48.102;2023-04-23T04:54:05;16.82;76.35
75489;HTU21D;64069;46.396;48.102;2023-04-23T04:56:32;17.03;76.24
75489;HTU21D;64069;46.396;48.102;2023-04-23T04:58:58;17.11;76.22
75489;HTU21D;64069;46.396;48.102;2023-04-23T05:01:25;17.30;76.13
75489;HTU21D;64069;46.396;48.102;2023-04-23T05:03:55;17.49;75.95
75489;HTU21D;64069;46.396;48.102;2023-04-23T05:06:21;17.62;75.82
75489;HTU21D;64069;46.396;48.102;2023-04-23T05:08:47;17.69;75.69
75489;HTU21D;64069;46.396;48.102;2023-04-23T05:11:13;17.79;75.52
75489;HTU21D;64069;46.396;48.102;2023-04-23T05:13:39;17.85;75.30
75489;HTU21D;64069;46.396;48.102;2023-04-23T05:16:05;17.96;75.09
75489;HTU21D;64069;46.396;48.102;2023-04-23T05:18:31;18.11;74.84
75489;HTU21D;64069;46.396;48.102;2023-04-23T05:20:57;18.17;74.60
75489;HTU21D;64069;46.396;48.102;2023-04-23T05:23:22;18.23;74.12
75489;HTU21D;64069;46.396;48.102;2023-04-23T05:25:48;18.24;74.08
75489;HTU21D;64069;46.396;48.102;2023-04-23T05:28:16;18.36;73.94
75489;HTU21D;64069;46.396;48.102;2023-04-23T05:30:49;18.52;73.69
75489;HTU21D;64069;46.396;48.102;2023-04-23T05:33:14;18.70;73.35
75489;HTU21D;64069;46.396;48.102;2023-04-23T05:35:40;18.85;73.07
75489;HTU21D;64069;46.396;48.102;2023-04-23T05:38:06;18.94;72.84
75489;HTU21D;64069;46.396;48.102;2023-04-23T05:40:32;19.03;72.64
75489;HTU21D;64069;46.396;48.102;2023-04-23T05:42:58;19.09;72.34
75489;HTU21D;64069;46.396;48.102;2023-04-23T05:45:24;19.07;72.04
75489;HTU21D;64069;46.396;48.102;2023-04-23T05:47:50;19.07;72.16
75489;HTU21D;64069;46.396;48.102;2023-04-23T05:50:16;19.22;71.84
75489;HTU21D;64069;46.396;48.102;2023-04-23T05:52:42;19.30;71.66
75489;HTU21D;64069;46.396;48.102;2023-04-23T05:55:08;19.44;71.42
75489;HTU21D;64069;46.396;48.102;2023-04-23T05:57:37;19.56;71.01
75489;HTU21D;64069;46.396;48.102;2023-04-23T06:00:03;19.65;70.82
75489;HTU21D;64069;46.396;48.102;2023-04-23T06:02:38;19.83;70.70
75489;HTU21D;64069;46.396;48.102;2023-04-23T06:05:05;19.94;70.29
75489;HTU21D;64069;46.396;48.102;2023-04-23T06:07:31;20.01;70.24
75489;HTU21D;64069;46.396;48.102;2023-04-23T06:09:57;20.16;70.13
75489;HTU21D;64069;46.396;48.102;2023-04-23T06:12:24;20.31;69.65
75489;HTU21D;64069;46.396;48.102;2023-04-23T06:14:51;20.29;69.56
75489;HTU21D;64069;46.396;48.102;2023-04-23T06:17:17;20.39;69.52
75489;HTU21D;64069;46.396;48.102;2023-04-23T06:19:43;20.46;69.25
75489;HTU21D;64069;46.396;48.102;2023-04-23T06:22:09;20.50;68.89
75489;HTU21D;64069;46.396;48.102;2023-04-23T06:24:35;20.50;68.72
75489;HTU21D;64069;46.396;48.102;2023-04-23T06:27:01;20.54;68.73
75489;HTU21D;64069;46.396;48.102;2023-04-23T06:29:29;20.68;68.56
75489;HTU21D;64069;46.396;48.102;2023-04-23T06:32:01;20.83;68.49
75489;HTU21D;64069;46.396;48.102;2023-04-23T06:34:27;21.01;67.92
75489;HTU21D;64069;46.396;48.102;2023-04-23T06:36:53;21.00;67.80
75489;HTU21D;64069;46.396;48.102;2023-04-23T06:39:19;20.83;67.91
75489;HTU21D;64069;46.396;48.102;2023-04-23T06:41:45;20.77;68.10
75489;HTU21D;64069;46.396;48.102;2023-04-23T06:44:29;20.95;67.76
75489;HTU21D;64069;46.396;48.102;2023-04-23T06:46:55;21.00;67.28
75489;HTU21D;64069;46.396;48.102;2023-04-23T06:49:21;20.86;67.27
75489;HTU21D;64069;46.396;48.102;2023-04-23T06:51:47;20.92;67.33
75489;HTU21D;64069;46.396;48.102;2023-04-23T06:54:12;21.03;66.97
75489;HTU21D;64069;46.396;48.102;2023-04-23T06:56:38;21.05;66.67
75489;HTU21D;64069;46.396;48.102;2023-04-23T06:59:04;21.07;66.60
75489;HTU21D;64069;46.396;48.102;2023-04-23T07:01:33;21.08;66.41
75489;HTU21D;64069;46.396;48.102;2023-04-23T07:04:03;21.01;66.05
75489;HTU21D;64069;46.396;48.102;2023-04-23T07:06:29;21.06;66.07
75489;HTU21D;64069;46.396;48.102;2023-04-23T07:08:55;21.21;66.02
75489;HTU21D;64069;46.396;48.102;2023-04-23T07:11:21;21.36;65.73
75489;HTU21D;64069;46.396;48.102;2023-04-23T07:13:48;21.38;64.96
75489;HTU21D;64069;46.396;48.102;2023-04-23T07:16:13;21.28;64.82
75489;HTU21D;64069;46.396;48.102;2023-04-23T07:18:39;21.17;64.61
75489;HTU21D;64069;46.396;48.102;2023-04-23T07:21:05;21.20;64.53
75489;HTU21D;64069;46.396;48.102;2023-04-23T07:23:31;21.28;64.21
75489;HTU21D;64069;46.396;48.102;2023-04-23T07:25:56;21.29;63.98
75489;HTU21D;64069;46.396;48.102;2023-04-23T07:28:22;21.36;63.77
75489;HTU21D;64069;46.396;48.102;2023-04-23T07:30:48;21.53;63.46
75489;HTU21D;64069;46.396;48.102;2023-04-23T07:33:14;21.66;63.15
75489;HTU21D;64069;46.396;48.102;2023-04-23T07:35:40;21.73;62.83
75489;HTU21D;64069;46.396;48.102;2023-04-23T07:38:06;21.96;62.29
75489;HTU21D;64069;46.396;48.102;2023-04-23T07:40:32;22.11;62.04
75489;HTU21D;64069;46.396;48.102;2023-04-23T07:42:57;22.25;61.54
75489;HTU21D;64069;46.396;48.102;2023-04-23T07:45:23;22.51;61.24
75489;HTU21D;64069;46.396;48.102;2023-04-23T07:47:49;22.70;60.83
75489;HTU21D;64069;46.396;48.102;2023-04-23T07:50:18;22.75;60.15
75489;HTU21D;64069;46.396;48.102;2023-04-23T07:52:43;22.83;59.78
75489;HTU21D;64069;46.396;48.102;2023-04-23T07:55:09;22.92;59.73
75489;HTU21D;64069;46.396;48.102;2023-04-23T07:57:36;22.84;59.65
75489;HTU21D;64069;46.396;48.102;2023-04-23T08:00:02;22.68;59.51
75489;HTU21D;64069;46.396;48.102;2023-04-23T08:02:37;22.90;59.31
75489;HTU21D;64069;46.396;48.102;2023-04-23T08:05:03;23.18;58.48
75489;HTU21D;64069;46.396;48.102;2023-04-23T08:07:28;23.38;57.91
75489;HTU21D;64069;46.396;48.102;2023-04-23T08:09:57;23.56;57.45
75489;HTU21D;64069;46.396;48.102;2023-04-23T08:12:30;23.41;56.97
75489;HTU21D;64069;46.396;48.102;2023-04-23T08:14:58;23.14;56.98
75489;HTU21D;64069;46.396;48.102;2023-04-23T08:17:30;22.93;57.02
75489;HTU21D;64069;46.396;48.102;2023-04-23T08:19:56;22.80;57.32
75489;HTU21D;64069;46.396;48.102;2023-04-23T08:22:22;22.76;56.79
75489;HTU21D;64069;46.396;48.102;2023-04-23T08:24:50;22.72;57.05
75489;HTU21D;64069;46.396;48.102;2023-04-23T08:27:16;22.66;56.44
75489;HTU21D;64069;46.396;48.102;2023-04-23T08:29:42;22.60;56.48
75489;HTU21D;64069;46.396;48.102;2023-04-23T08:32:08;22.80;56.27
75489;HTU21D;64069;46.396;48.102;2023-04-23T08:34:33;23.06;55.59
75489;HTU21D;64069;46.396;48.102;2023-04-23T08:36:59;23.17;54.92
75489;HTU21D;64069;46.396;48.102;2023-04-23T08:39:25;23.21;54.53
75489;HTU21D;64069;46.396;48.102;2023-04-23T08:41:55;23.35;54.35
75489;HTU21D;64069;46.396;48.102;2023-04-23T08:44:24;23.37;53.75
75489;HTU21D;64069;46.396;48.102;2023-04-23T08:46:52;23.30;53.15
75489;HTU21D;64069;46.396;48.102;2023-04-23T08:49:18;23.11;53.17
75489;HTU21D;64069;46.396;48.102;2023-04-23T08:51:56;23.10;53.13
75489;HTU21D;64069;46.396;48.102;2023-04-23T08:54:28;23.14;53.07
75489;HTU21D;64069;46.396;48.102;2023-04-23T08:56:57;23.28;52.82
75489;HTU21D;64069;46.396;48.102;2023-04-23T08:59:29;23.28;52.11
75489;HTU21D;64069;46.396;48.102;2023-04-23T09:01:56;23.20;52.29
75489;HTU21D;64069;46.396;48.102;2023-04-23T09:04:22;23.18;51.99
75489;HTU21D;64069;46.396;48.102;2023-04-23T09:06:50;23.27;51.88
75489;HTU21D;64069;46.396;48.102;2023-04-23T09:09:16;23.39;51.44
75489;HTU21D;64069;46.396;48.102;2023-04-23T09:11:43;23.39;51.21
75489;HTU21D;64069;46.396;48.102;2023-04-23T09:14:09;23.39;51.02
75489;HTU21D;64069;46.396;48.102;2023-04-23T09:16:35;23.35;50.97
75489;HTU21D;64069;46.396;48.102;2023-04-23T09:19:01;23.23;50.98
75489;HTU21D;64069;46.396;48.102;2023-04-23T09:21:27;23.18;50.54
75489;HTU21D;64069;46.396;48.102;2023-04-23T09:23:52;23.27;50.35
75489;HTU21D;64069;46.396;48.102;2023-04-23T09:26:19;23.38;50.06
75489;HTU21D;64069;46.396;48.102;2023-04-23T09:28:48;23.31;49.91
75489;HTU21D;64069;46.396;48.102;2023-04-23T09:31:16;23.36;49.76
75489;HTU21D;64069;46.396;48.102;2023-04-23T09:33:49;23.25;49.26
75489;HTU21D;64069;46.396;48.102;2023-04-23T09:36:14;23.23;49.35
75489;HTU21D;64069;46.396;48.102;2023-04-23T09:38:47;23.30;49.02
75489;HTU21D;64069;46.396;48.102;2023-04-23T09:41:26;23.21;49.02
75489;HTU21D;64069;46.396;48.102;2023-04-23T09:43:56;23.15;49.08
75489;HTU21D;64069;46.396;48.102;2023-04-23T09:46:31;23.11;49.21
75489;HTU21D;64069;46.396;48.102;2023-04-23T09:48:57;23.07;48.97
75489;HTU21D;64069;46.396;48.102;2023-04-23T09:51:24;23.09;48.73
75489;HTU21D;64069;46.396;48.102;2023-04-23T09:53:56;23.25;48.39
75489;HTU21D;64069;46.396;48.102;2023-04-23T09:56:23;23.26;48.32
75489;HTU21D;64069;46.396;48.102;2023-04-23T09:58:48;23.22;48.47
75489;HTU21D;64069;46.396;48.102;2023-04-23T10:01:14;23.27;48.48
75489;HTU21D;64069;46.396;48.102;2023-04-23T10:03:44;23.21;48.38
75489;HTU21D;64069;46.396;48.102;2023-04-23T10:06:13;22.97;48.58
75489;HTU21D;64069;46.396;48.102;2023-04-23T10:08:43;22.72;48.76
75489;HTU21D;64069;46.396;48.102;2023-04-23T10:11:10;22.64;49.18
75489;HTU21D;64069;46.396;48.102;2023-04-23T10:13:36;22.62;49.16
75489;HTU21D;64069;46.396;48.102;2023-04-23T10:16:03;22.55;49.22
75489;HTU21D;64069;46.396;48.102;2023-04-23T10:18:32;22.75;49.01
75489;HTU21D;64069;46.396;48.102;2023-04-23T10:20:59;22.91;48.77
75489;HTU21D;64069;46.396;48.102;2023-04-23T10:23:25;22.79;48.31
75489;HTU21D;64069;46.396;48.102;2023-04-23T10:25:54;22.58;48.37
75489;HTU21D;64069;46.396;48.102;2023-04-23T10:28:21;22.46;48.60
75489;HTU21D;64069;46.396;48.102;2023-04-23T10:30:51;22.34;48.70
75489;HTU21D;64069;46.396;48.102;2023-04-23T10:33:18;22.28;48.66
75489;HTU21D;64069;46.396;48.102;2023-04-23T10:35:45;22.14;48.08
75489;HTU21D;64069;46.396;48.102;2023-04-23T10:38:11;22.03;48.57
75489;HTU21D;64069;46.396;48.102;2023-04-23T10:40:37;21.98;48.70
75489;HTU21D;64069;46.396;48.102;2023-04-23T10:43:04;21.96;48.77
75489;HTU21D;64069;46.396;48.102;2023-04-23T10:45:30;22.11;48.60
75489;HTU21D;64069;46.396;48.102;2023-04-23T10:47:57;22.23;48.21
75489;HTU21D;64069;46.396;48.102;2023-04-23T10:50:29;22.38;48.12
75489;HTU21D;64069;46.396;48.102;2023-04-23T10:52:58;22.56;48.02
75489;HTU21D;64069;46.396;48.102;2023-04-23T10:55:26;22.64;47.89
75489;HTU21D;64069;46.396;48.102;2023-04-23T11:00:28;22.62;47.73
75489;HTU21D;64069;46.396;48.102;2023-04-23T11:02:54;22.54;47.62
75489;HTU21D;64069;46.396;48.102;2023-04-23T11:05:23;22.38;47.84
75489;HTU21D;64069;46.396;48.102;2023-04-23T11:08:05;22.29;48.05
75489;HTU21D;64069;46.396;48.102;2023-04-23T11:10:31;22.22;47.90
75489;HTU21D;64069;46.396;48.102;2023-04-23T11:13:23;22.14;48.14
75489;HTU21D;64069;46.396;48.102;2023-04-23T11:16:14;22.17;48.17
75489;HTU21D;64069;46.396;48.102;2023-04-23T11:24:11;22.28;47.61
75489;HTU21D;64069;46.396;48.102;2023-04-23T11:26:37;22.35;47.47
75489;HTU21D;64069;46.396;48.102;2023-04-23T11:29:07;22.39;47.42
75489;HTU21D;64069;46.396;48.102;2023-04-23T11:31:32;22.41;47.48
75489;HTU21D;64069;46.396;48.102;2023-04-23T11:33:59;22.35;47.25
75489;HTU21D;64069;46.396;48.102;2023-04-23T11:36:25;22.25;47.32
75489;HTU21D;64069;46.396;48.102;2023-04-23T11:38:54;22.17;47.35
75489;HTU21D;64069;46.396;48.102;2023-04-23T11:41:23;22.17;47.28
75489;HTU21D;64069;46.396;48.102;2023-04-23T11:43:50;22.19;47.43
75489;HTU21D;64069;46.396;48.102;2023-04-23T11:46:16;22.26;47.22
75489;HTU21D;64069;46.396;48.102;2023-04-23T11:48:41;22.23;47.20
75489;HTU21D;64069;46.396;48.102;2023-04-23T11:51:07;22.20;47.39
75489;HTU21D;64069;46.396;48.102;2023-04-23T11:53:33;22.14;47.29
75489;HTU21D;64069;46.396;48.102;2023-04-23T11:56:02;22.07;47.28
75489;HTU21D;64069;46.396;48.102;2023-04-23T11:58:29;22.01;47.59
75489;HTU21D;64069;46.396;48.102;2023-04-23T12:00:58;21.99;47.60
75489;HTU21D;64069;46.396;48.102;2023-04-23T12:03:25;21.99;47.49
75489;HTU21D;64069;46.396;48.102;2023-04-23T12:05:51;21.95;47.54
75489;HTU21D;64069;46.396;48.102;2023-04-23T12:08:17;21.91;47.48
75489;HTU21D;64069;46.396;48.102;2023-04-23T12:10:45;21.88;47.46
75489;HTU21D;64069;46.396;48.102;2023-04-23T12:13:14;21.82;47.47
75489;HTU21D;64069;46.396;48.102;2023-04-23T12:15:50;21.84;47.46
75489;HTU21D;64069;46.396;48.102;2023-04-23T12:18:16;21.87;47.26
75489;HTU21D;64069;46.396;48.102;2023-04-23T12:20:42;21.79;47.20
75489;HTU21D;64069;46.396;48.102;2023-04-23T12:23:08;21.66;47.29
75489;HTU21D;64069;46.396;48.102;2023-04-23T12:25:35;21.61;47.50
75489;HTU21D;64069;46.396;48.102;2023-04-23T12:28:01;21.64;47.50
75489;HTU21D;64069;46.396;48.102;2023-04-23T12:30:33;21.67;47.31
75489;HTU21D;64069;46.396;48.102;2023-04-23T12:33:02;21.67;47.41
75489;HTU21D;64069;46.396;48.102;2023-04-23T12:35:38;21.64;47.44
75489;HTU21D;64069;46.396;48.102;2023-04-23T12:38:04;21.58;47.58
75489;HTU21D;64069;46.396;48.102;2023-04-23T12:40:30;21.53;47.67
75489;HTU21D;64069;46.396;48.102;2023-04-23T12:42:55;21.39;47.65
75489;HTU21D;64069;46.396;48.102;2023-04-23T12:45:21;21.27;47.89
75489;HTU21D;64069;46.396;48.102;2023-04-23T12:47:47;21.21;48.05
75489;HTU21D;64069;46.396;48.102;2023-04-23T12:50:13;21.20;48.13
75489;HTU21D;64069;46.396;48.102;2023-04-23T12:52:41;21.20;48.02
75489;HTU21D;64069;46.396;48.102;2023-04-23T12:55:10;21.20;48.06
75489;HTU21D;64069;46.396;48.102;2023-04-23T12:57:35;21.13;47.96
75489;HTU21D;64069;46.396;48.102;2023-04-23T13:00:04;21.06;48.21
75489;HTU21D;64069;46.396;48.102;2023-04-23T13:02:30;21.01;48.20
75489;HTU21D;64069;46.396;48.102;2023-04-23T13:05:00;20.92;48.13
75489;HTU21D;64069;46.396;48.102;2023-04-23T13:07:26;20.85;48.21
75489;HTU21D;64069;46.396;48.102;2023-04-23T13:09:53;20.80;48.40
75489;HTU21D;64069;46.396;48.102;2023-04-23T13:12:18;20.71;48.31
75489;HTU21D;64069;46.396;48.102;2023-04-23T13:14:44;20.60;48.53
75489;HTU21D;64069;46.396;48.102;2023-04-23T13:17:10;20.50;48.73
75489;HTU21D;64069;46.396;48.102;2023-04-23T13:19:36;20.46;48.70
75489;HTU21D;64069;46.396;48.102;2023-04-23T13:22:04;20.46;48.70
75489;HTU21D;64069;46.396;48.102;2023-04-23T13:24:30;20.48;48.48
75489;HTU21D;64069;46.396;48.102;2023-04-23T13:26:55;20.53;48.55
75489;HTU21D;64069;46.396;48.102;2023-04-23T13:29:22;20.59;48.33
75489;HTU21D;64069;46.396;48.102;2023-04-23T13:31:48;20.58;48.37
75489;HTU21D;64069;46.396;48.102;2023-04-23T13:34:14;20.55;48.46
75489;HTU21D;64069;46.396;48.102;2023-04-23T13:36:39;20.50;48.64
75489;HTU21D;64069;46.396;48.102;2023-04-23T13:39:06;20.46;48.79
75489;HTU21D;64069;46.396;48.102;2023-04-23T13:41:33;20.44;48.90
75489;HTU21D;64069;46.396;48.102;2023-04-23T13:43:59;20.41;49.02
75489;HTU21D;64069;46.396;48.102;2023-04-23T13:46:25;20.41;48.99
75489;HTU21D;64069;46.396;48.102;2023-04-23T13:48:54;20.42;48.95
75489;HTU21D;64069;46.396;48.102;2023-04-23T13:51:24;20.39;49.01
75489;HTU21D;64069;46.396;48.102;2023-04-23T13:53:50;20.34;49.05
75489;HTU21D;64069;46.396;48.102;2023-04-23T13:56:21;20.22;49.21
75489;HTU21D;64069;46.396;48.102;2023-04-23T13:58:47;20.07;49.46
75489;HTU21D;64069;46.396;48.102;2023-04-23T14:01:13;19.97;49.60
75489;HTU21D;64069;46.396;48.102;2023-04-23T14:03:40;19.89;49.62
75489;HTU21D;64069;46.396;48.102;2023-04-23T14:06:10;19.88;49.63
75489;HTU21D;64069;46.396;48.102;2023-04-23T14:08:35;19.83;49.58
75489;HTU21D;64069;46.396;48.102;2023-04-23T14:11:02;19.71;49.74
75489;HTU21D;64069;46.396;48.102;2023-04-23T14:13:31;19.55;49.98
75489;HTU21D;64069;46.396;48.102;2023-04-23T14:15:57;19.40;50.18
75489;HTU21D;64069;46.396;48.102;2023-04-23T14:18:23;19.24;50.37
75489;HTU21D;64069;46.396;48.102;2023-04-23T14:20:49;19.12;50.53
75489;HTU21D;64069;46.396;48.102;2023-04-23T14:25:51;18.94;50.73
75489;HTU21D;64069;46.396;48.102;2023-04-23T14:28:26;18.91;50.72
75489;HTU21D;64069;46.396;48.102;2023-04-23T14:30:56;18.91;50.67
75489;HTU21D;64069;46.396;48.102;2023-04-23T14:33:22;18.92;50.62
75489;HTU21D;64069;46.396;48.102;2023-04-23T14:35:49;18.94;50.59
75489;HTU21D;64069;46.396;48.102;2023-04-23T14:38:14;18.93;50.50
75489;HTU21D;64069;46.396;48.102;2023-04-23T14:40:45;18.92;50.55
75489;HTU21D;64069;46.396;48.102;2023-04-23T14:43:11;18.92;50.50
75489;HTU21D;64069;46.396;48.102;2023-04-23T14:45:36;18.86;50.51
75489;HTU21D;64069;46.396;48.102;2023-04-23T14:48:02;18.82;50.63
75489;HTU21D;64069;46.396;48.102;2023-04-23T14:50:28;18.73;50.75
75489;HTU21D;64069;46.396;48.102;2023-04-23T14:52:57;18.71;50.77
75489;HTU21D;64069;46.396;48.102;2023-04-23T14:55:23;18.69;50.81
75489;HTU21D;64069;46.396;48.102;2023-04-23T14:57:53;18.67;50.80
75489;HTU21D;64069;46.396;48.102;2023-04-23T15:00:18;18.67;50.84
75489;HTU21D;64069;46.396;48.102;2023-04-23T15:02:46;18.67;50.85
75489;HTU21D;64069;46.396;48.102;2023-04-23T15:05:12;18.67;50.85
75489;HTU21D;64069;46.396;48.102;2023-04-23T15:07:40;18.64;50.89
75489;HTU21D;64069;46.396;48.102;2023-04-23T15:10:06;18.56;51.01
75489;HTU21D;64069;46.396;48.102;2023-04-23T15:15:25;18.37;51.39